Time;durP1;ratioP1;P1;durP2;ratioP2;P2;SDS_P1;SDS_P2;PMS_P1;PMS_P2;Temp;Humidity;BMP_temperature;BMP_pressure;BME280_temperature;BME280_humidity;BME280_pressure;Samples;Min_cycle;Max_cycle;Signal;HPM_P1;HPM_P2
2022/08/20 00:00:16;;;;;;;18.98;13.02;;;21.60;99.90;;;;;;4976549;28;20027;-62
2022/08/20 00:03:05;;;;;;;18.48;12.43;;;21.70;99.90;;;;;;4979808;28;20445;-62
2022/08/20 00:05:38;;;;;;;16.00;12.43;;;21.70;99.90;;;;;;4976911;28;20042;-62
2022/08/20 00:08:06;;;;;;;15.73;12.43;;;21.70;99.90;;;;;;4988059;28;20049;-62
2022/08/20 00:10:34;;;;;;;15.85;12.57;;;21.80;99.90;;;;;;4990870;28;20084;-61
2022/08/20 00:13:00;;;;;;;15.65;11.27;;;21.70;99.90;;;;;;4986895;28;20026;-61
2022/08/20 00:15:31;;;;;;;15.07;12.80;;;21.60;99.90;;;;;;4987045;28;20437;-61
2022/08/20 00:17:57;;;;;;;14.55;12.18;;;21.50;99.90;;;;;;4989795;28;20066;-61
2022/08/20 00:20:28;;;;;;;19.23;13.35;;;21.40;99.90;;;;;;4986167;28;20019;-61
2022/08/20 00:22:54;;;;;;;15.13;11.35;;;21.40;99.90;;;;;;4987965;28;20030;-62
2022/08/20 00:25:23;;;;;;;15.98;11.73;;;21.50;99.90;;;;;;4983157;28;20085;-61
2022/08/20 00:27:49;;;;;;;15.80;12.70;;;21.50;99.90;;;;;;4983020;28;20034;-61
2022/08/20 00:30:15;;;;;;;17.20;12.98;;;21.60;99.90;;;;;;4987936;28;20101;-62
2022/08/20 00:32:44;;;;;;;16.58;12.82;;;21.60;99.90;;;;;;4990184;28;20153;-61
2022/08/20 00:35:10;;;;;;;16.73;13.30;;;21.60;99.90;;;;;;4987560;28;20402;-62
2022/08/20 00:37:36;;;;;;;15.15;13.10;;;21.60;99.90;;;;;;4989270;28;20026;-62
2022/08/20 00:40:03;;;;;;;16.02;12.73;;;21.60;99.90;;;;;;4982363;28;20033;-61
2022/08/20 00:42:28;;;;;;;17.50;13.07;;;21.50;99.90;;;;;;4981407;28;20015;-61
2022/08/20 00:44:54;;;;;;;16.42;13.95;;;21.50;99.90;;;;;;4992243;28;20040;-61
2022/08/20 00:47:20;;;;;;;15.60;12.70;;;21.40;99.90;;;;;;4989452;28;20380;-61
2022/08/20 00:49:45;;;;;;;16.83;13.10;;;21.40;99.90;;;;;;4988957;28;20058;-60
2022/08/20 00:52:16;;;;;;;14.90;13.32;;;21.30;99.90;;;;;;4989923;28;20037;-60
2022/08/20 00:55:02;;;;;;;16.30;12.85;;;21.20;99.90;;;;;;4986698;28;20041;-60
2022/08/20 00:57:36;;;;;;;18.10;14.40;;;21.20;99.90;;;;;;4984796;28;20030;-60
2022/08/20 01:00:09;;;;;;;15.25;13.65;;;21.20;99.90;;;;;;4991026;28;20036;-61
2022/08/20 01:02:35;;;;;;;16.17;13.45;;;21.30;99.90;;;;;;4979664;28;20498;-61
2022/08/20 01:05:01;;;;;;;16.70;13.27;;;21.20;99.90;;;;;;4981577;28;20071;-62
2022/08/20 01:07:33;;;;;;;15.45;13.65;;;21.10;99.90;;;;;;4981337;28;20066;-62
2022/08/20 01:10:21;;;;;;;15.68;13.60;;;21.10;99.90;;;;;;4983514;28;20030;-61
2022/08/20 01:12:48;;;;;;;17.77;13.80;;;21.20;99.90;;;;;;4984372;28;20026;-61
2022/08/20 01:15:16;;;;;;;16.65;14.40;;;21.20;99.90;;;;;;4981281;28;20470;-60
2022/08/20 01:17:48;;;;;;;17.13;15.15;;;21.20;99.90;;;;;;4985206;28;20482;-60
2022/08/20 01:20:24;;;;;;;18.25;13.90;;;21.20;99.90;;;;;;4987144;28;20022;-60
2022/08/20 01:23:28;;;;;;;20.30;15.05;;;21.10;99.90;;;;;;4985264;28;20053;-60
2022/08/20 01:26:11;;;;;;;19.25;15.10;;;21.10;99.90;;;;;;4982654;28;20399;-61
2022/08/20 01:29:00;;;;;;;18.27;14.07;;;21.30;99.90;;;;;;4982401;28;20026;-60
2022/08/20 01:31:29;;;;;;;19.10;14.77;;;21.40;99.90;;;;;;4988223;28;20129;-60
2022/08/20 01:33:56;;;;;;;17.08;14.60;;;21.50;99.90;;;;;;4984428;28;20371;-60
2022/08/20 01:36:29;;;;;;;19.25;15.40;;;21.30;99.90;;;;;;4989866;28;20026;-60
2022/08/20 01:38:55;;;;;;;19.63;14.85;;;21.30;99.90;;;;;;4986257;28;20030;-60
2022/08/20 01:41:20;;;;;;;16.73;14.43;;;21.30;99.90;;;;;;4985115;28;20116;-60
2022/08/20 01:43:48;;;;;;;21.60;15.30;;;21.10;99.90;;;;;;4989378;28;20438;-60
2022/08/20 01:46:14;;;;;;;18.13;14.50;;;21.30;99.90;;;;;;4986978;28;20423;-60
2022/08/20 01:48:41;;;;;;;19.40;13.60;;;21.30;99.90;;;;;;4987592;28;20548;-60
2022/08/20 01:51:18;;;;;;;22.10;15.27;;;21.20;99.90;;;;;;4981879;28;20787;-60
2022/08/20 01:53:47;;;;;;;17.95;14.48;;;20.90;99.90;;;;;;4988942;28;20375;-60
2022/08/20 01:56:17;;;;;;;20.33;13.38;;;20.80;99.90;;;;;;4989770;28;20034;-60
2022/08/20 01:58:51;;;;;;;17.73;13.30;;;20.70;99.90;;;;;;4982675;28;20551;-60
2022/08/20 02:01:25;;;;;;;16.55;13.85;;;20.80;99.90;;;;;;4980617;28;20022;-60
2022/08/20 02:03:50;;;;;;;17.02;13.98;;;20.70;99.90;;;;;;4986122;28;20015;-60
2022/08/20 02:06:17;;;;;;;18.10;13.73;;;20.60;99.90;;;;;;4981473;28;20042;-59
2022/08/20 02:08:43;;;;;;;13.93;12.48;;;20.50;99.90;;;;;;4988120;28;20130;-59
2022/08/20 02:11:09;;;;;;;17.85;13.52;;;20.60;99.90;;;;;;4984010;28;20098;-60
2022/08/20 02:13:35;;;;;;;17.50;13.55;;;20.70;99.90;;;;;;4989709;28;20482;-59
2022/08/20 02:16:01;;;;;;;18.92;14.02;;;20.60;99.90;;;;;;4986515;28;20031;-59
2022/08/20 02:18:26;;;;;;;18.80;13.20;;;20.80;99.90;;;;;;4985801;28;20053;-59
2022/08/20 02:20:52;;;;;;;17.77;13.35;;;20.80;99.90;;;;;;4981993;28;20018;-59
2022/08/20 02:23:18;;;;;;;17.25;13.73;;;20.80;99.90;;;;;;4992187;28;20030;-59
2022/08/20 02:25:46;;;;;;;17.40;13.43;;;20.80;99.90;;;;;;4981233;28;20076;-59
2022/08/20 02:28:15;;;;;;;18.83;13.93;;;20.70;99.90;;;;;;4985273;28;20474;-59
2022/08/20 02:30:47;;;;;;;18.88;13.35;;;20.70;99.90;;;;;;4980621;28;20544;-59
2022/08/20 02:33:15;;;;;;;16.38;12.73;;;20.60;99.90;;;;;;4985392;28;20045;-59
2022/08/20 02:35:44;;;;;;;17.27;12.48;;;20.70;99.90;;;;;;4990141;28;20482;-59
2022/08/20 02:38:10;;;;;;;17.65;13.27;;;20.80;99.90;;;;;;4999846;28;20022;-59
2022/08/20 02:40:36;;;;;;;15.98;13.35;;;20.70;99.90;;;;;;4985246;28;20023;-59
2022/08/20 02:43:02;;;;;;;16.95;13.25;;;20.60;99.90;;;;;;4984924;28;20468;-59
2022/08/20 02:45:34;;;;;;;18.70;13.05;;;20.60;99.90;;;;;;4986338;28;20027;-59
2022/08/20 02:48:00;;;;;;;19.30;14.48;;;20.60;99.90;;;;;;4989438;28;20603;-59
2022/08/20 02:50:26;;;;;;;16.90;14.32;;;20.50;99.90;;;;;;4995654;28;20026;-59
2022/08/20 02:52:53;;;;;;;18.75;13.90;;;20.60;99.90;;;;;;4994545;28;20034;-59
2022/08/20 02:55:19;;;;;;;18.65;13.95;;;20.60;99.90;;;;;;4986106;28;20638;-59
2022/08/20 02:57:45;;;;;;;18.70;13.75;;;20.60;99.90;;;;;;4995210;28;20026;-58
2022/08/20 03:00:15;;;;;;;18.13;14.65;;;20.60;99.90;;;;;;4992752;28;20499;-59
2022/08/20 03:02:41;;;;;;;15.95;12.77;;;20.50;99.90;;;;;;4973268;28;20101;-59
2022/08/20 03:05:07;;;;;;;18.35;13.52;;;20.40;99.90;;;;;;4995293;28;20121;-59
2022/08/20 03:07:46;;;;;;;19.35;14.80;;;20.50;99.90;;;;;;4987266;28;20558;-59
2022/08/20 03:10:13;;;;;;;20.10;14.93;;;20.50;99.90;;;;;;4988713;28;20031;-59
2022/08/20 03:12:39;;;;;;;20.92;15.40;;;20.70;99.90;;;;;;4970612;28;20054;-58
2022/08/20 03:15:08;;;;;;;19.50;15.32;;;20.80;99.90;;;;;;4991961;28;20022;-59
2022/08/20 03:17:34;;;;;;;19.55;15.98;;;20.70;99.90;;;;;;4993561;28;21479;-59
2022/08/20 03:20:00;;;;;;;20.60;16.25;;;20.60;99.90;;;;;;4990255;28;20038;-59
2022/08/20 03:22:25;;;;;;;20.88;15.18;;;20.60;99.90;;;;;;4979038;28;20018;-59
2022/08/20 03:24:51;;;;;;;20.83;14.93;;;20.60;99.90;;;;;;4987314;28;20061;-59
2022/08/20 03:27:17;;;;;;;21.27;15.57;;;20.50;99.90;;;;;;4985031;28;20030;-59
2022/08/20 03:29:42;;;;;;;20.38;16.00;;;20.50;99.90;;;;;;4986927;28;20469;-58
2022/08/20 03:32:08;;;;;;;20.42;16.08;;;20.50;99.90;;;;;;4987126;28;20038;-59
2022/08/20 03:34:33;;;;;;;21.23;16.13;;;20.50;99.90;;;;;;5003392;28;21241;-58
2022/08/20 03:36:59;;;;;;;22.42;16.30;;;20.50;99.90;;;;;;4988065;28;20105;-59
2022/08/20 03:39:25;;;;;;;22.02;16.55;;;20.50;99.90;;;;;;4988981;28;20034;-59
2022/08/20 03:42:01;;;;;;;21.10;15.88;;;20.50;99.90;;;;;;4990314;28;20185;-59
2022/08/20 03:44:27;;;;;;;22.85;17.00;;;20.50;99.90;;;;;;4985130;28;20030;-58
2022/08/20 03:46:53;;;;;;;22.33;17.10;;;20.50;99.90;;;;;;4990952;28;20490;-59
2022/08/20 03:49:18;;;;;;;22.20;17.55;;;20.40;99.90;;;;;;4987835;28;20055;-59
2022/08/20 03:51:44;;;;;;;21.10;16.20;;;20.30;99.90;;;;;;4986677;28;20049;-59
2022/08/20 03:54:10;;;;;;;22.33;17.50;;;20.40;99.90;;;;;;4985609;28;20080;-58
2022/08/20 03:56:35;;;;;;;24.73;18.60;;;20.30;99.90;;;;;;4990995;28;20026;-59
2022/08/20 03:59:01;;;;;;;25.55;18.25;;;20.10;99.90;;;;;;4991250;28;20060;-59
2022/08/20 04:01:27;;;;;;;25.33;18.75;;;20.20;99.90;;;;;;4983534;28;20042;-59
2022/08/20 04:03:52;;;;;;;26.30;18.35;;;20.40;99.90;;;;;;4987625;28;20022;-58
2022/08/20 04:06:18;;;;;;;25.38;19.40;;;20.40;99.90;;;;;;4979800;28;20034;-58
2022/08/20 04:08:43;;;;;;;24.35;18.08;;;20.40;99.90;;;;;;4991756;28;20682;-59
2022/08/20 04:11:09;;;;;;;27.55;19.88;;;20.50;99.90;;;;;;4986537;28;20030;-59
2022/08/20 04:13:35;;;;;;;28.98;19.85;;;20.60;99.90;;;;;;4993502;28;20022;-59
2022/08/20 04:16:07;;;;;;;26.60;19.85;;;20.60;99.90;;;;;;4987896;28;20105;-59
2022/08/20 04:18:35;;;;;;;30.80;21.67;;;20.90;99.90;;;;;;5004932;28;20264;-58
2022/08/20 04:21:02;;;;;;;27.08;19.35;;;21.10;99.90;;;;;;4988795;28;20023;-58
2022/08/20 04:23:28;;;;;;;25.02;19.48;;;20.60;99.90;;;;;;4992983;28;20033;-59
2022/08/20 04:25:54;;;;;;;23.63;18.73;;;20.50;99.90;;;;;;4978933;28;20432;-59
2022/08/20 04:28:27;;;;;;;25.88;20.05;;;20.40;99.90;;;;;;4992072;28;20030;-59
2022/08/20 04:30:58;;;;;;;26.38;20.00;;;20.40;99.90;;;;;;4986750;28;20066;-59
2022/08/20 04:33:26;;;;;;;30.48;21.75;;;20.50;99.90;;;;;;4984745;28;20130;-59
2022/08/20 04:35:53;;;;;;;25.25;20.00;;;20.40;99.90;;;;;;4985558;28;20026;-59
2022/08/20 04:38:21;;;;;;;28.25;20.80;;;20.40;99.90;;;;;;4988931;28;20018;-59
2022/08/20 04:40:52;;;;;;;27.73;20.05;;;20.40;99.90;;;;;;4984939;28;20049;-58
2022/08/20 04:43:22;;;;;;;31.00;22.60;;;20.30;99.90;;;;;;4979143;28;20042;-59
2022/08/20 04:45:50;;;;;;;27.88;20.23;;;20.30;99.90;;;;;;4986459;28;20113;-57
2022/08/20 04:48:18;;;;;;;30.83;23.75;;;20.40;99.90;;;;;;4983519;28;20531;-59
2022/08/20 04:50:45;;;;;;;26.33;21.10;;;20.50;99.90;;;;;;4991901;28;20030;-59
2022/08/20 04:53:12;;;;;;;28.38;20.73;;;20.60;99.90;;;;;;4987517;28;20030;-59
2022/08/20 04:55:41;;;;;;;28.08;20.88;;;20.60;99.90;;;;;;4993436;28;20029;-59
2022/08/20 04:58:16;;;;;;;30.83;22.67;;;20.60;99.90;;;;;;4985454;28;20509;-59
2022/08/20 05:00:48;;;;;;;33.38;23.25;;;20.70;99.90;;;;;;4982929;28;20544;-59
2022/08/20 05:03:15;;;;;;;29.85;21.73;;;20.70;99.90;;;;;;4987831;28;20026;-60
2022/08/20 05:05:44;;;;;;;32.95;23.95;;;20.80;99.90;;;;;;4982093;28;20490;-60
2022/08/20 05:08:11;;;;;;;30.55;23.08;;;21.00;99.90;;;;;;4990609;28;20018;-61
2022/08/20 05:10:38;;;;;;;29.83;22.77;;;20.80;99.90;;;;;;4986120;28;20465;-60
2022/08/20 05:13:04;;;;;;;30.67;23.17;;;20.70;99.90;;;;;;4982555;28;20026;-60
2022/08/20 05:15:30;;;;;;;30.75;23.20;;;20.70;99.90;;;;;;4989023;28;20031;-60
2022/08/20 05:18:02;;;;;;;31.65;24.77;;;20.70;99.90;;;;;;4994784;28;20037;-60
2022/08/20 05:20:30;;;;;;;34.50;24.45;;;20.80;99.90;;;;;;4988395;28;20112;-61
2022/08/20 05:23:01;;;;;;;33.30;25.20;;;20.90;99.90;;;;;;4992190;28;20456;-61
2022/08/20 05:25:28;;;;;;;35.40;24.27;;;21.10;99.90;;;;;;4987393;28;20029;-61
2022/08/20 05:28:11;;;;;;;51.83;26.73;;;21.00;99.90;;;;;;4985313;28;20038;-62
2022/08/20 05:30:41;;;;;;;31.17;22.77;;;20.70;99.90;;;;;;4987733;28;20041;-62
2022/08/20 05:33:08;;;;;;;32.92;21.40;;;20.50;99.90;;;;;;4981932;28;20121;-61
2022/08/20 05:35:37;;;;;;;33.53;23.52;;;20.40;99.90;;;;;;4988333;28;20401;-62
2022/08/20 05:38:10;;;;;;;34.53;23.23;;;20.50;99.90;;;;;;4983251;28;20227;-62
2022/08/20 05:40:36;;;;;;;37.75;24.80;;;20.50;99.90;;;;;;4985959;28;20018;-62
2022/08/20 05:43:03;;;;;;;32.00;24.50;;;20.60;99.90;;;;;;4979163;28;20026;-62
2022/08/20 05:45:30;;;;;;;37.22;25.17;;;20.60;99.90;;;;;;4984738;28;20026;-62
2022/08/20 05:47:57;;;;;;;36.03;25.00;;;20.40;99.90;;;;;;4985534;28;20498;-62
2022/08/20 05:50:23;;;;;;;36.15;25.85;;;20.40;99.90;;;;;;4985906;28;20026;-62
2022/08/20 05:52:48;;;;;;;36.72;26.08;;;20.40;99.90;;;;;;4988297;28;20037;-62
2022/08/20 05:55:14;;;;;;;42.90;28.35;;;20.50;99.90;;;;;;4982972;28;20034;-63
2022/08/20 05:57:40;;;;;;;41.63;29.60;;;20.60;99.90;;;;;;4981994;28;20568;-62
2022/08/20 06:00:10;;;;;;;46.58;29.50;;;20.60;99.90;;;;;;4985606;28;20511;-62
2022/08/20 06:05:20;;;;;;;42.42;30.27;;;20.70;99.90;;;;;;4978047;28;20073;-61
2022/08/20 06:07:46;;;;;;;44.38;29.83;;;20.60;99.90;;;;;;4980158;28;20124;-62
2022/08/20 06:10:12;;;;;;;41.72;29.27;;;20.60;99.90;;;;;;4982746;28;20509;-61
2022/08/20 06:12:38;;;;;;;41.22;30.05;;;20.50;99.90;;;;;;4988297;28;20034;-61
2022/08/20 06:15:05;;;;;;;38.63;28.92;;;20.30;99.90;;;;;;4990391;28;20034;-61
2022/08/20 06:17:32;;;;;;;41.75;28.90;;;20.00;99.90;;;;;;4988240;28;20041;-61
2022/08/20 06:20:02;;;;;;;39.35;28.90;;;19.90;99.90;;;;;;4986228;28;20022;-61
2022/08/20 06:22:28;;;;;;;39.85;29.13;;;19.90;99.90;;;;;;4988181;28;20078;-62
2022/08/20 06:24:53;;;;;;;43.85;29.88;;;19.90;99.90;;;;;;4987248;28;20802;-63
2022/08/20 06:27:19;;;;;;;48.13;33.47;;;19.90;99.90;;;;;;4995046;28;20492;-62
2022/08/20 06:29:45;;;;;;;49.25;34.55;;;19.90;99.90;;;;;;4990488;28;20070;-61
2022/08/20 06:32:11;;;;;;;47.05;33.45;;;19.80;99.90;;;;;;4987481;28;20108;-62
2022/08/20 06:34:37;;;;;;;49.13;33.38;;;19.70;99.90;;;;;;4984527;28;20340;-61
2022/08/20 06:37:13;;;;;;;56.75;35.90;;;19.80;99.90;;;;;;4991951;28;20030;-61
2022/08/20 06:39:38;;;;;;;54.72;36.17;;;19.70;99.90;;;;;;4986698;28;20023;-61
2022/08/20 06:42:04;;;;;;;55.53;37.33;;;19.80;99.90;;;;;;4981086;28;20033;-62
2022/08/20 06:44:31;;;;;;;60.05;40.65;;;19.90;99.90;;;;;;4983908;28;20981;-61
2022/08/20 06:47:00;;;;;;;66.30;42.40;;;19.90;99.90;;;;;;4986368;28;20049;-61
2022/08/20 06:49:25;;;;;;;66.00;41.97;;;20.00;99.90;;;;;;4983061;28;20034;-61
2022/08/20 06:51:51;;;;;;;69.68;42.78;;;20.10;99.90;;;;;;4984756;28;20045;-61
2022/08/20 06:54:16;;;;;;;72.60;45.63;;;20.10;99.90;;;;;;4992229;28;20098;-61
2022/08/20 06:56:43;;;;;;;66.78;44.50;;;20.10;99.90;;;;;;4989265;28;20108;-62
2022/08/20 06:59:08;;;;;;;77.03;47.38;;;20.10;99.90;;;;;;4979806;28;20027;-62
2022/08/20 07:01:34;;;;;;;71.13;46.15;;;20.20;99.90;;;;;;4989435;28;20125;-63
2022/08/20 07:04:00;;;;;;;75.55;46.35;;;20.30;99.90;;;;;;4994862;28;20038;-62
2022/08/20 07:06:26;;;;;;;75.97;47.05;;;20.40;99.90;;;;;;4985084;28;20073;-61
2022/08/20 07:08:53;;;;;;;73.03;46.85;;;20.50;99.90;;;;;;4985831;28;20473;-61
2022/08/20 07:11:19;;;;;;;75.32;47.50;;;20.30;99.90;;;;;;4988800;28;20082;-61
2022/08/20 07:13:45;;;;;;;76.28;47.20;;;20.50;99.90;;;;;;4984513;28;20031;-61
2022/08/20 07:16:11;;;;;;;70.70;47.60;;;20.60;99.90;;;;;;4979920;28;20045;-61
2022/08/20 07:18:36;;;;;;;74.20;48.35;;;20.60;99.90;;;;;;4979244;28;20026;-61
2022/08/20 07:21:02;;;;;;;73.07;45.42;;;20.50;99.90;;;;;;4989260;28;20027;-61
2022/08/20 07:23:30;;;;;;;74.05;45.35;;;20.30;99.90;;;;;;4990449;28;20037;-61
2022/08/20 07:25:56;;;;;;;69.20;43.67;;;20.30;99.90;;;;;;4991532;28;20034;-60
2022/08/20 07:28:23;;;;;;;68.35;44.30;;;20.20;99.90;;;;;;4984805;28;20114;-60
2022/08/20 07:33:36;;;;;;;74.30;44.55;;;20.00;99.90;;;;;;4990267;28;20049;-60
2022/08/20 07:36:03;;;;;;;67.50;43.85;;;20.10;99.90;;;;;;4987987;28;20052;-60
2022/08/20 07:38:29;;;;;;;73.32;43.35;;;20.20;99.90;;;;;;4988511;28;20022;-59
2022/08/20 07:41:04;;;;;;;65.72;41.78;;;20.20;99.90;;;;;;4984895;28;20030;-59
2022/08/20 07:43:30;;;;;;;65.95;43.15;;;20.20;99.90;;;;;;4985901;28;20440;-60
2022/08/20 07:46:00;;;;;;;66.07;43.17;;;20.20;99.90;;;;;;4986754;28;20478;-60
2022/08/20 07:48:29;;;;;;;65.85;42.10;;;20.20;99.90;;;;;;4988108;28;20462;-60
2022/08/20 07:50:56;;;;;;;61.83;40.00;;;20.30;99.90;;;;;;4985962;28;20106;-61
2022/08/20 07:53:22;;;;;;;65.95;41.50;;;20.50;99.90;;;;;;4993901;28;20366;-59
2022/08/20 07:55:48;;;;;;;60.08;39.50;;;20.50;99.90;;;;;;4980522;28;20066;-59
2022/08/20 07:58:18;;;;;;;58.00;38.28;;;20.50;99.90;;;;;;4990178;28;20111;-59
2022/08/20 08:00:44;;;;;;;65.45;38.35;;;20.50;99.90;;;;;;4987971;28;20030;-60
2022/08/20 08:03:10;;;;;;;61.00;37.25;;;20.40;99.90;;;;;;4984481;28;20585;-59
2022/08/20 08:05:38;;;;;;;60.53;37.40;;;20.40;99.90;;;;;;4983958;28;20073;-59
2022/08/20 08:08:10;;;;;;;59.17;37.33;;;20.20;99.90;;;;;;4985875;28;20041;-59
2022/08/20 08:10:37;;;;;;;57.88;37.05;;;20.40;99.90;;;;;;4986050;28;20023;-61
2022/08/20 08:13:07;;;;;;;60.92;38.10;;;20.60;99.90;;;;;;4983621;28;20520;-58
2022/08/20 08:15:37;;;;;;;56.50;34.60;;;20.80;99.90;;;;;;4988494;28;20080;-57
2022/08/20 08:18:07;;;;;;;53.22;34.22;;;20.90;99.90;;;;;;4986787;28;20648;-58
2022/08/20 08:20:37;;;;;;;56.85;34.80;;;21.00;99.90;;;;;;4980976;28;20022;-59
2022/08/20 08:23:03;;;;;;;54.92;34.17;;;21.10;99.90;;;;;;4986520;28;20037;-59
2022/08/20 08:25:31;;;;;;;52.50;31.85;;;21.30;99.90;;;;;;4986517;28;20647;-59
2022/08/20 08:27:59;;;;;;;50.72;31.67;;;21.30;99.90;;;;;;4988226;28;20524;-59
2022/08/20 08:30:25;;;;;;;47.33;30.75;;;21.50;99.90;;;;;;4984533;28;20466;-59
2022/08/20 08:35:37;;;;;;;48.45;30.02;;;21.50;99.90;;;;;;4990979;28;20045;-58
2022/08/20 08:38:02;;;;;;;46.80;30.38;;;21.60;99.90;;;;;;4987512;28;20385;-58
2022/08/20 08:40:30;;;;;;;48.38;28.77;;;21.60;99.90;;;;;;4988030;28;20018;-58
2022/08/20 08:43:00;;;;;;;40.65;26.38;;;21.80;99.90;;;;;;4982296;28;20058;-58
2022/08/20 08:45:32;;;;;;;39.92;26.90;;;21.80;99.90;;;;;;4985728;28;20034;-59
2022/08/20 08:47:58;;;;;;;36.83;24.35;;;22.00;99.90;;;;;;4990418;28;20557;-58
2022/08/20 08:50:28;;;;;;;36.45;22.88;;;22.00;99.90;;;;;;4986117;28;20117;-58
2022/08/20 08:52:58;;;;;;;35.03;23.40;;;22.10;99.90;;;;;;4982534;28;20378;-59
2022/08/20 08:55:24;;;;;;;35.72;23.80;;;21.90;99.90;;;;;;4978074;28;20026;-57
2022/08/20 08:57:55;;;;;;;37.58;23.75;;;21.80;99.90;;;;;;4979645;28;20407;-59
2022/08/20 09:00:22;;;;;;;39.25;24.48;;;21.70;99.90;;;;;;4977550;28;20023;-59
2022/08/20 09:03:06;;;;;;;38.05;23.80;;;21.80;99.90;;;;;;4988818;28;20081;-59
2022/08/20 09:05:47;;;;;;;42.53;26.70;;;22.00;99.90;;;;;;4988899;28;20031;-60
2022/08/20 09:08:16;;;;;;;46.63;25.95;;;22.10;99.90;;;;;;4985689;28;20034;-58
2022/08/20 09:10:43;;;;;;;41.83;26.00;;;22.20;99.90;;;;;;4981005;28;20728;-59
2022/08/20 09:13:10;;;;;;;44.20;25.45;;;22.20;99.90;;;;;;4985521;28;20077;-58
2022/08/20 09:15:35;;;;;;;44.20;26.45;;;22.10;99.90;;;;;;4983621;28;20037;-59
2022/08/20 09:18:01;;;;;;;40.42;25.50;;;22.10;99.90;;;;;;4982133;28;20030;-59
2022/08/20 09:20:27;;;;;;;37.08;24.05;;;22.20;99.90;;;;;;4983775;28;20034;-57
2022/08/20 09:22:53;;;;;;;36.17;23.45;;;22.10;99.90;;;;;;4985561;28;20751;-59
2022/08/20 09:25:19;;;;;;;35.53;22.88;;;22.10;99.90;;;;;;4984526;28;20390;-59
2022/08/20 09:27:45;;;;;;;46.40;25.52;;;22.20;99.90;;;;;;4989279;28;20482;-58
2022/08/20 09:30:11;;;;;;;38.95;24.13;;;22.30;99.90;;;;;;4988745;28;20081;-59
2022/08/20 09:32:37;;;;;;;39.50;22.08;;;22.20;99.90;;;;;;4984763;28;20393;-59
2022/08/20 09:35:03;;;;;;;39.75;23.02;;;22.20;99.90;;;;;;4982991;28;20026;-59
2022/08/20 09:37:31;;;;;;;36.03;22.67;;;22.30;99.90;;;;;;4992169;28;20036;-59
2022/08/20 09:39:57;;;;;;;48.38;24.50;;;22.30;99.90;;;;;;4990809;28;20092;-58
2022/08/20 09:42:29;;;;;;;42.42;22.42;;;22.30;99.90;;;;;;4987673;28;20501;-56
2022/08/20 09:44:56;;;;;;;37.40;22.48;;;22.30;99.90;;;;;;4987850;28;20030;-57
2022/08/20 09:47:22;;;;;;;39.08;21.98;;;22.30;99.90;;;;;;4992749;28;20041;-59
2022/08/20 09:49:47;;;;;;;43.03;21.10;;;22.50;99.90;;;;;;4988575;28;20569;-59
2022/08/20 09:52:27;;;;;;;35.58;22.30;;;22.60;99.90;;;;;;4987616;28;20109;-58
2022/08/20 09:54:56;;;;;;;41.10;21.52;;;22.50;99.90;;;;;;4992162;28;20054;-58
2022/08/20 09:57:22;;;;;;;38.28;20.55;;;22.40;99.90;;;;;;4986923;28;20117;-58
2022/08/20 10:00:00;;;;;;;43.50;23.73;;;22.40;99.90;;;;;;4982235;28;20045;-59
2022/08/20 10:02:26;;;;;;;42.05;24.27;;;22.20;99.90;;;;;;4981077;28;20038;-59
2022/08/20 10:04:52;;;;;;;41.55;23.45;;;22.10;99.90;;;;;;4974167;28;20030;-58
2022/08/20 10:07:18;;;;;;;39.53;23.35;;;22.00;99.90;;;;;;4979758;28;20388;-57
2022/08/20 10:09:43;;;;;;;42.15;24.42;;;22.10;99.90;;;;;;4982539;28;20026;-58
2022/08/20 10:12:09;;;;;;;37.80;22.05;;;22.00;99.90;;;;;;4978086;28;20081;-57
2022/08/20 10:14:35;;;;;;;39.00;22.80;;;22.10;99.90;;;;;;4975846;28;20048;-58
2022/08/20 10:17:01;;;;;;;39.03;23.35;;;22.10;99.90;;;;;;4982291;28;20042;-59
2022/08/20 10:19:29;;;;;;;35.80;24.35;;;22.10;99.90;;;;;;4980088;28;20031;-55
2022/08/20 10:21:55;;;;;;;35.08;21.67;;;22.10;99.90;;;;;;4980884;28;20410;-56
2022/08/20 10:24:21;;;;;;;40.67;25.38;;;22.00;99.90;;;;;;4981373;28;20031;-58
2022/08/20 10:26:48;;;;;;;36.80;23.90;;;22.10;99.90;;;;;;4982889;28;20065;-59
2022/08/20 10:29:14;;;;;;;41.67;23.52;;;22.10;99.90;;;;;;4981887;28;20184;-59
2022/08/20 10:31:39;;;;;;;36.17;23.00;;;22.30;99.90;;;;;;4984323;28;20022;-57
2022/08/20 10:34:05;;;;;;;35.33;23.70;;;22.30;99.90;;;;;;4986505;28;20486;-58
2022/08/20 10:36:31;;;;;;;38.10;24.40;;;22.40;99.90;;;;;;4983995;28;20036;-58
2022/08/20 10:38:57;;;;;;;38.63;23.60;;;22.50;99.90;;;;;;4987096;28;20090;-59
2022/08/20 10:41:22;;;;;;;41.60;23.45;;;22.60;99.90;;;;;;4985101;28;20038;-58
2022/08/20 10:43:49;;;;;;;34.67;23.38;;;22.60;99.90;;;;;;4987390;28;20690;-59
2022/08/20 10:46:15;;;;;;;35.30;23.30;;;22.70;99.90;;;;;;4979004;28;20030;-58
2022/08/20 10:48:41;;;;;;;38.05;23.65;;;22.70;99.90;;;;;;4979094;28;20050;-59
2022/08/20 10:51:06;;;;;;;36.28;24.33;;;22.70;99.90;;;;;;4980329;28;20026;-57
2022/08/20 10:53:32;;;;;;;37.55;25.60;;;22.70;99.90;;;;;;4981628;28;20023;-59
2022/08/20 10:55:58;;;;;;;38.13;25.33;;;22.70;99.90;;;;;;4986492;28;20789;-59
2022/08/20 10:58:25;;;;;;;48.33;26.92;;;22.80;99.90;;;;;;4985911;28;20501;-59
2022/08/20 11:00:51;;;;;;;43.88;28.58;;;22.60;99.90;;;;;;4986242;28;20034;-59
2022/08/20 11:03:17;;;;;;;40.72;28.33;;;22.30;99.90;;;;;;4984910;28;20022;-59
2022/08/20 11:05:43;;;;;;;35.00;25.40;;;22.50;99.90;;;;;;4982392;28;20666;-57
2022/08/20 11:08:09;;;;;;;36.97;25.50;;;22.60;99.90;;;;;;4984161;28;20088;-59
2022/08/20 11:10:35;;;;;;;37.80;24.30;;;22.80;99.90;;;;;;4982907;28;20138;-59
2022/08/20 11:13:03;;;;;;;34.17;23.52;;;22.90;99.90;;;;;;4986971;28;20015;-59
2022/08/20 11:15:29;;;;;;;36.78;25.20;;;23.00;99.90;;;;;;4987167;28;20100;-59
2022/08/20 11:17:55;;;;;;;36.72;26.02;;;23.10;99.90;;;;;;4988282;28;20038;-59
2022/08/20 11:20:23;;;;;;;44.40;26.60;;;23.30;99.90;;;;;;4984940;28;20018;-58
2022/08/20 11:22:49;;;;;;;36.38;25.10;;;23.40;99.90;;;;;;4987157;28;20034;-60
2022/08/20 11:25:15;;;;;;;38.35;24.17;;;23.30;99.90;;;;;;4990974;28;20026;-59
2022/08/20 11:27:43;;;;;;;35.97;24.33;;;23.00;99.90;;;;;;4986246;28;20110;-59
2022/08/20 11:30:14;;;;;;;29.52;21.05;;;23.00;99.90;;;;;;4984766;28;20030;-59
2022/08/20 11:32:40;;;;;;;31.50;22.48;;;23.20;99.90;;;;;;4986703;28;20580;-59
2022/08/20 11:35:06;;;;;;;34.42;23.42;;;23.40;99.90;;;;;;4985972;28;20033;-60
2022/08/20 11:37:33;;;;;;;34.33;23.27;;;23.40;99.90;;;;;;4985271;28;20018;-60
2022/08/20 11:39:58;;;;;;;31.98;21.88;;;23.30;99.90;;;;;;4985248;28;20031;-58
2022/08/20 11:42:24;;;;;;;39.47;24.30;;;23.30;99.90;;;;;;4987779;28;20092;-59
2022/08/20 11:44:49;;;;;;;36.30;23.15;;;23.60;99.90;;;;;;4988700;28;20177;-59
2022/08/20 11:47:25;;;;;;;28.52;20.83;;;23.50;99.90;;;;;;4989125;28;20062;-59
2022/08/20 11:50:03;;;;;;;28.08;19.23;;;23.50;99.90;;;;;;4982147;28;21691;-58
2022/08/20 11:52:29;;;;;;;26.85;18.48;;;23.70;99.90;;;;;;4983223;28;20034;-66
2022/08/20 11:54:56;;;;;;;25.00;19.13;;;23.70;99.90;;;;;;4985722;28;20054;-67
2022/08/20 11:57:24;;;;;;;25.77;17.85;;;24.00;99.90;;;;;;4986117;28;20052;-67
2022/08/20 11:59:52;;;;;;;24.40;16.88;;;23.60;99.90;;;;;;4981826;28;20430;-65
2022/08/20 12:02:18;;;;;;;28.98;17.83;;;24.20;99.90;;;;;;4982448;28;20038;-65
2022/08/20 12:04:44;;;;;;;27.05;16.30;;;24.00;99.90;;;;;;4994541;28;20398;-66
2022/08/20 12:07:11;;;;;;;28.17;17.13;;;24.10;99.90;;;;;;4981644;28;20492;-67
2022/08/20 12:09:37;;;;;;;28.95;18.88;;;24.10;99.90;;;;;;4982176;28;20541;-66
2022/08/20 12:12:03;;;;;;;26.15;16.63;;;24.40;99.90;;;;;;4981072;28;20106;-65
2022/08/20 12:14:29;;;;;;;26.05;17.25;;;24.40;99.90;;;;;;4979980;28;20039;-66
2022/08/20 12:16:54;;;;;;;30.05;16.48;;;24.40;99.90;;;;;;4981755;28;20420;-65
2022/08/20 12:19:20;;;;;;;27.27;16.52;;;24.60;99.90;;;;;;4983400;28;20037;-65
2022/08/20 12:21:45;;;;;;;23.60;14.88;;;24.40;99.90;;;;;;4985063;28;20037;-66
2022/08/20 12:24:11;;;;;;;22.73;14.63;;;24.40;99.90;;;;;;4988394;28;20038;-66
2022/08/20 12:26:36;;;;;;;28.67;18.10;;;24.50;99.90;;;;;;4981128;28;20081;-67
2022/08/20 12:29:02;;;;;;;25.60;15.45;;;24.40;99.90;;;;;;4982183;28;20032;-67
2022/08/20 12:31:28;;;;;;;26.88;15.27;;;24.40;99.90;;;;;;4984667;28;20026;-66
2022/08/20 12:33:53;;;;;;;25.38;14.82;;;24.50;99.90;;;;;;4984575;28;20033;-66
2022/08/20 12:36:19;;;;;;;22.88;14.43;;;24.50;99.90;;;;;;4982143;28;20030;-66
2022/08/20 12:38:45;;;;;;;21.27;13.70;;;24.60;99.90;;;;;;4967816;28;20868;-65